Peterborough Airport
CYPQ : now visible

Airfield :











YOU CAN JOIN US ON...

 
LOGIN :

Register | Disclaimer

   EN    FR    IT 

 









Legend :    VFR   Marginal VFR   IFR   Intensive IFR   Very Intensive IFR
Visi :
Ceiling :
>= 8 km
>= 3000ft
5 to 8 km
1000 to 3000 ft
1500m to 5 km
500 to 1000 ft
800 to 1500m
200 to 500 ft
< 800m
< 200 ft
Symbols :   Thunderstorms  Fog  Heavy snow  Heavy precipitations  Wind > 20 kt






- Airport Elevation : 628 ft
- IATA code : YPQ


CYPQ - Peterborough

CURRENT METAR :
  • 050700Z AUTO 28007KT 9SM BKN010 OVC018 18/17 A2985 RMK SLP108 DENSITY ALT 1100FT

EXPIRED METARs :
  • 050644Z AUTO 28005KT 9SM SCT008 BKN016 18/17 A2984 RMK SLP107 DENSITY ALT 1100FT
  • 050600Z AUTO 26005KT 9SM OVC008 18/17 A2984 RMK SLP106 DENSITY ALT 1100FT
  • 050510Z AUTO 29006KT 9SM BKN008 BKN027 BKN047 OVC060 18/17 A2984 RMK SLP105 DENSITY ALT 1200FT

Expired Forecast.
CZYZ FIR / North America



MET'MAP, your aeronautical weather chart ! - Copyright ORBIFLY December 2007 - Disclaimer

ORBIFLY MET'MAP TEAM :

Programming & Development : Alexandra Zaïnal
Concept & original design : Baudouin d'Aumeries
Assistance for programming : Marc-Olivier Méhu
Technical & hardware support : Manuel Goepfert

Contact : metmap@orbifly.com




SOURCES & CREDITS :

   NOAA       Earth
Advisory